Time;durP1;ratioP1;P1;durP2;ratioP2;P2;SDS_P1;SDS_P2;PMS_P1;PMS_P2;Temp;Humidity;BMP_temperature;BMP_pressure;BME280_temperature;BME280_humidity;BME280_pressure;Samples;Min_cycle;Max_cycle;Signal;HPM_P1;HPM_P2
2021/10/21 00:01:50;;;;;;;4.50;2.40;;;;;;;13.34;100.00;97579.50;5026994;28;20447;-74
2021/10/21 00:04:17;;;;;;;3.10;2.38;;;;;;;13.22;100.00;97544.25;5036884;28;20418;-74
2021/10/21 00:06:42;;;;;;;4.55;2.50;;;;;;;13.44;100.00;97549.75;5035638;28;20029;-74
2021/10/21 00:09:08;;;;;;;5.68;2.35;;;;;;;13.34;100.00;97564.00;5036184;28;20099;-73
2021/10/21 00:11:34;;;;;;;5.82;2.75;;;;;;;13.42;100.00;97532.88;5035119;28;20017;-74
2021/10/21 00:14:00;;;;;;;4.53;2.75;;;;;;;13.40;100.00;97558.63;5033928;28;20061;-74
2021/10/21 00:16:26;;;;;;;5.07;2.22;;;;;;;13.33;100.00;97553.38;5035726;28;20021;-75
2021/10/21 00:18:51;;;;;;;5.55;2.40;;;;;;;13.35;100.00;97533.03;5028302;28;20029;-75
2021/10/21 00:21:18;;;;;;;4.78;2.30;;;;;;;13.34;100.00;97525.97;5035148;28;20033;-75
2021/10/21 00:23:43;;;;;;;2.63;1.98;;;;;;;13.18;100.00;97505.09;5035878;28;20060;-74
2021/10/21 00:26:08;;;;;;;3.92;2.10;;;;;;;13.30;100.00;97521.28;5035594;28;20120;-73
2021/10/21 00:28:34;;;;;;;4.47;1.80;;;;;;;13.27;100.00;97508.22;5034459;28;20025;-74
2021/10/21 00:31:00;;;;;;;4.43;2.03;;;;;;;13.09;100.00;97485.69;5034204;28;20482;-74
2021/10/21 00:33:25;;;;;;;3.00;1.65;;;;;;;13.23;100.00;97502.44;5033736;28;20033;-74
2021/10/21 00:35:50;;;;;;;3.90;1.73;;;;;;;13.14;100.00;97483.03;5036026;28;20022;-74
2021/10/21 00:38:16;;;;;;;5.13;2.13;;;;;;;13.25;100.00;97483.16;5051988;28;20006;-76
2021/10/21 00:40:41;;;;;;;2.95;1.73;;;;;;;13.13;100.00;97453.44;5037052;28;20038;-74
2021/10/21 00:43:06;;;;;;;2.67;1.77;;;;;;;13.25;100.00;97488.59;5031117;28;20029;-74
2021/10/21 00:45:33;;;;;;;4.03;2.00;;;;;;;13.21;100.00;97461.13;5034826;28;20041;-74
2021/10/21 00:47:58;;;;;;;3.85;1.75;;;;;;;13.22;100.00;97476.34;5019526;28;20435;-74
2021/10/21 00:50:24;;;;;;;3.58;2.00;;;;;;;13.24;100.00;97471.50;5031305;28;20025;-74
2021/10/21 00:52:49;;;;;;;5.40;2.03;;;;;;;13.18;100.00;97444.50;5026700;28;20076;-74
2021/10/21 00:55:15;;;;;;;2.28;1.73;;;;;;;13.15;100.00;97438.53;5039059;28;20551;-74
2021/10/21 00:57:41;;;;;;;3.38;2.10;;;;;;;13.20;100.00;97439.66;5032949;28;20031;-74
2021/10/21 01:00:07;;;;;;;4.78;2.08;;;;;;;13.14;100.00;97427.91;5022548;28;20018;-74
2021/10/21 01:02:32;;;;;;;3.58;1.80;;;;;;;13.11;100.00;97417.56;5034406;28;20434;-74
2021/10/21 01:04:58;;;;;;;3.70;2.10;;;;;;;13.10;100.00;97405.88;5034414;28;20030;-74
2021/10/21 01:07:23;;;;;;;3.55;1.92;;;;;;;13.06;100.00;97393.06;5036963;28;20025;-73
2021/10/21 01:09:49;;;;;;;5.05;2.15;;;;;;;13.10;100.00;97391.50;5036050;28;20032;-73
2021/10/21 01:12:14;;;;;;;5.13;2.30;;;;;;;13.12;100.00;97389.31;5034652;28;20049;-73
2021/10/21 01:14:40;;;;;;;4.53;2.33;;;;;;;13.07;100.00;97383.84;5017076;28;20026;-73
2021/10/21 01:17:06;;;;;;;3.53;2.28;;;;;;;13.04;100.00;97381.63;5052274;28;20024;-73
2021/10/21 01:19:31;;;;;;;3.88;2.28;;;;;;;13.06;100.00;97360.47;5048980;28;20113;-73
2021/10/21 01:21:57;;;;;;;3.97;2.33;;;;;;;13.12;100.00;97359.44;5030791;28;20031;-74
2021/10/21 01:24:24;;;;;;;3.80;2.40;;;;;;;13.13;100.00;97350.25;5025074;28;20033;-74
2021/10/21 01:26:51;;;;;;;7.30;2.85;;;;;;;13.25;100.00;97348.19;5031282;28;20349;-74
2021/10/21 01:29:18;;;;;;;4.18;3.00;;;;;;;13.33;100.00;97342.31;5024641;28;20029;-74
2021/10/21 01:31:46;;;;;;;4.20;3.15;;;;;;;13.35;100.00;97345.59;5032926;28;20084;-74
2021/10/21 01:34:12;;;;;;;5.55;3.45;;;;;;;13.31;100.00;97328.19;5034602;28;20033;-73
2021/10/21 01:36:38;;;;;;;5.25;3.40;;;;;;;13.35;100.00;97345.59;5033782;28;20037;-74
2021/10/21 01:39:06;;;;;;;8.35;3.50;;;;;;;13.36;100.00;97349.13;5033556;28;20499;-74
2021/10/21 01:41:32;;;;;;;6.32;3.88;;;;;;;13.20;100.00;97323.69;5034471;28;20047;-73
2021/10/21 01:43:57;;;;;;;8.43;4.75;;;;;;;13.35;100.00;97337.44;5032803;28;20033;-75
2021/10/21 01:46:23;;;;;;;7.00;4.72;;;;;;;13.34;100.00;97292.38;5032782;28;20172;-75
2021/10/21 01:48:48;;;;;;;6.97;4.53;;;;;;;13.46;100.00;97284.03;5032861;28;20033;-74
2021/10/21 01:51:14;;;;;;;9.02;5.10;;;;;;;13.50;100.00;97251.75;5033210;28;20487;-73
2021/10/21 01:53:40;;;;;;;9.02;5.50;;;;;;;13.52;100.00;97233.28;5032373;28;20483;-74
2021/10/21 01:56:05;;;;;;;6.93;5.30;;;;;;;13.53;100.00;97203.13;5031882;28;20095;-73
2021/10/21 01:58:30;;;;;;;9.07;5.50;;;;;;;13.51;100.00;97213.44;5032979;28;20151;-74
2021/10/21 02:00:56;;;;;;;8.80;5.90;;;;;;;13.62;100.00;97232.53;5030796;28;20506;-75
2021/10/21 02:03:21;;;;;;;8.70;5.10;;;;;;;13.57;100.00;97203.41;5029664;28;20060;-73
2021/10/21 02:05:46;;;;;;;10.73;5.78;;;;;;;13.50;100.00;97192.78;5029297;28;20050;-74
2021/10/21 02:08:12;;;;;;;12.57;6.32;;;;;;;13.55;100.00;97203.69;5029219;28;20025;-72
2021/10/21 02:10:37;;;;;;;10.48;5.35;;;;;;;13.72;100.00;97206.22;5032225;28;20386;-75
2021/10/21 02:13:03;;;;;;;7.10;5.15;;;;;;;13.72;100.00;97189.91;5034151;28;20032;-72
2021/10/21 02:15:29;;;;;;;9.32;5.47;;;;;;;13.71;100.00;97158.41;5030441;28;20032;-71
2021/10/21 02:17:54;;;;;;;5.95;4.55;;;;;;;13.83;100.00;97139.13;5031154;28;20029;-71
2021/10/21 02:20:19;;;;;;;7.57;4.32;;;;;;;13.85;100.00;97144.31;5023983;28;20029;-71
2021/10/21 02:22:45;;;;;;;7.00;4.38;;;;;;;13.89;100.00;97134.56;5033125;28;20087;-71
2021/10/21 02:25:12;;;;;;;8.43;4.95;;;;;;;13.94;100.00;97148.19;5032842;28;20091;-72
2021/10/21 02:27:38;;;;;;;5.68;4.35;;;;;;;13.93;100.00;97113.91;5033007;28;20075;-71
2021/10/21 02:30:06;;;;;;;9.25;4.05;;;;;;;13.96;100.00;97108.78;5031109;28;20044;-71
2021/10/21 02:32:31;;;;;;;6.32;4.13;;;;;;;13.84;100.00;97116.31;5033005;28;20033;-71
2021/10/21 02:34:56;;;;;;;6.40;3.92;;;;;;;13.99;100.00;97126.44;5033681;28;20104;-72
2021/10/21 02:37:22;;;;;;;5.60;3.28;;;;;;;13.98;100.00;97111.22;5033320;28;20052;-72
2021/10/21 02:39:47;;;;;;;5.82;3.78;;;;;;;13.93;100.00;97094.88;5032593;28;20052;-72
2021/10/21 02:42:13;;;;;;;6.53;4.60;;;;;;;13.91;100.00;97116.91;5012741;28;20037;-72
2021/10/21 02:44:38;;;;;;;7.13;4.35;;;;;;;13.75;100.00;97094.28;5028605;28;20029;-71
2021/10/21 02:47:03;;;;;;;5.07;3.72;;;;;;;13.85;100.00;97090.78;5052338;28;20044;-72
2021/10/21 02:49:29;;;;;;;5.70;4.22;;;;;;;13.82;100.00;97110.34;5049742;28;20017;-72
2021/10/21 02:51:55;;;;;;;6.80;3.55;;;;;;;13.96;100.00;97121.53;5030722;28;20030;-72
2021/10/21 02:54:20;;;;;;;6.47;3.53;;;;;;;14.00;100.00;97109.03;5032330;28;20029;-71
2021/10/21 02:56:45;;;;;;;4.78;3.55;;;;;;;14.07;100.00;97128.66;5032266;28;20387;-71
2021/10/21 02:59:11;;;;;;;6.00;3.60;;;;;;;14.09;100.00;97139.25;5025214;28;20033;-71
2021/10/21 03:01:36;;;;;;;6.13;3.80;;;;;;;14.01;100.00;97135.13;5032621;28;20503;-71
2021/10/21 03:04:01;;;;;;;6.70;3.83;;;;;;;14.01;100.00;97154.97;5060141;28;20455;-71
2021/10/21 03:06:27;;;;;;;6.88;4.18;;;;;;;13.76;100.00;97119.56;5033000;28;20026;-72
2021/10/21 03:08:52;;;;;;;7.00;4.55;;;;;;;13.85;100.00;97128.81;5032114;28;20052;-72
2021/10/21 03:11:17;;;;;;;6.72;4.63;;;;;;;13.86;100.00;97132.34;5035443;28;20101;-72
2021/10/21 03:13:43;;;;;;;5.72;4.30;;;;;;;13.85;100.00;97138.88;5030235;28;20060;-71
2021/10/21 03:16:08;;;;;;;5.68;4.20;;;;;;;13.85;100.00;97144.31;5032807;28;20036;-71
2021/10/21 03:18:33;;;;;;;8.40;4.40;;;;;;;13.89;100.00;97178.88;5032490;28;20025;-71
2021/10/21 03:20:59;;;;;;;6.75;3.65;;;;;;;13.89;100.00;97146.25;5038201;28;20525;-72
2021/10/21 03:23:27;;;;;;;8.50;3.72;;;;;;;13.81;100.00;97150.28;5033020;28;20502;-71
2021/10/21 03:25:54;;;;;;;4.75;3.42;;;;;;;13.76;100.00;97147.56;5028039;28;20037;-71
2021/10/21 03:28:19;;;;;;;2.97;2.10;;;;;;;14.01;100.00;97170.50;5031405;28;20087;-71
2021/10/21 03:30:45;;;;;;;5.00;2.42;;;;;;;14.10;100.00;97185.22;5029362;28;20038;-71
2021/10/21 03:33:14;;;;;;;2.70;1.80;;;;;;;14.30;100.00;97191.81;5031886;28;20080;-71
2021/10/21 03:35:40;;;;;;;4.10;1.83;;;;;;;14.31;100.00;97190.75;5032404;28;20511;-71
2021/10/21 03:38:05;;;;;;;2.50;1.63;;;;;;;14.30;100.00;97184.47;5049484;28;20105;-72
2021/10/21 03:40:31;;;;;;;2.08;1.75;;;;;;;14.09;100.00;97152.84;5029400;28;20036;-72
2021/10/21 03:42:56;;;;;;;5.60;1.80;;;;;;;14.27;100.00;97197.78;5032659;28;20052;-70
2021/10/21 03:45:22;;;;;;;3.83;1.60;;;;;;;14.16;100.00;97177.91;5032593;28;20467;-70
2021/10/21 03:47:47;;;;;;;2.85;1.63;;;;;;;14.20;100.00;97189.88;5045244;28;20078;-71
2021/10/21 03:50:13;;;;;;;2.85;1.85;;;;;;;14.19;100.00;97208.09;5037962;28;20029;-70
2021/10/21 03:52:38;;;;;;;3.05;1.58;;;;;;;14.23;100.00;97220.09;5032071;28;20030;-71
2021/10/21 03:55:04;;;;;;;2.70;1.55;;;;;;;14.16;100.00;97205.91;5029182;28;20495;-70
2021/10/21 03:57:29;;;;;;;2.90;1.77;;;;;;;13.95;100.00;97196.84;5032556;28;20021;-73
2021/10/21 03:59:54;;;;;;;9.23;1.65;;;;;;;14.07;100.00;97223.84;5021047;28;20446;-70
2021/10/21 04:02:20;;;;;;;2.58;1.23;;;;;;;14.21;100.00;97197.78;5015228;28;20431;-70
2021/10/21 04:04:45;;;;;;;1.58;1.27;;;;;;;14.14;100.00;97213.50;5024457;28;20033;-73
2021/10/21 04:07:10;;;;;;;5.03;1.20;;;;;;;14.07;100.00;97236.59;5020452;28;20068;-74
2021/10/21 04:09:36;;;;;;;1.50;1.27;;;;;;;13.97;100.00;97240.09;5032424;28;20018;-72
2021/10/21 04:12:01;;;;;;;2.47;1.10;;;;;;;13.89;100.00;97267.78;5029759;28;20034;-74
2021/10/21 04:14:27;;;;;;;1.95;1.00;;;;;;;14.10;97.79;97274.97;5020526;28;20018;-74
2021/10/21 04:16:52;;;;;;;1.15;0.30;;;;;;;14.49;80.54;97233.78;5021987;28;20159;-75
2021/10/21 04:19:17;;;;;;;1.42;0.50;;;;;;;14.44;79.35;97252.81;5025585;28;20033;-74
2021/10/21 04:21:43;;;;;;;2.38;1.23;;;;;;;14.43;79.05;97275.66;5021738;28;20052;-74
2021/10/21 04:24:08;;;;;;;0.70;0.40;;;;;;;14.20;81.90;97299.50;5029037;28;20475;-75
2021/10/21 04:26:33;;;;;;;1.95;0.20;;;;;;;14.16;77.89;97309.25;5014157;28;20029;-77
2021/10/21 04:28:59;;;;;;;4.28;0.40;;;;;;;14.20;71.60;97313.09;5019165;28;20037;-75
2021/10/21 04:31:24;;;;;;;1.05;0.30;;;;;;;14.14;70.97;97352.22;5030810;28;20037;-74
2021/10/21 04:33:49;;;;;;;5.97;0.47;;;;;;;14.11;66.38;97335.63;5031523;28;20032;-74
2021/10/21 04:36:15;;;;;;;7.07;0.35;;;;;;;13.94;67.99;97330.34;5029672;28;20564;-77
2021/10/21 04:38:41;;;;;;;4.93;0.40;;;;;;;13.80;65.67;97316.34;5027047;28;20030;-77
2021/10/21 04:41:06;;;;;;;2.47;0.40;;;;;;;13.72;64.69;97322.28;5029974;28;20084;-71
2021/10/21 04:43:32;;;;;;;6.03;0.50;;;;;;;14.03;63.89;97366.84;5022358;28;20025;-73
2021/10/21 04:45:57;;;;;;;2.95;0.52;;;;;;;13.74;63.40;97361.72;5028294;28;20501;-72
2021/10/21 04:48:22;;;;;;;10.55;1.55;;;;;;;14.12;61.25;97394.34;5034384;28;20033;-73
2021/10/21 04:50:48;;;;;;;2.03;0.70;;;;;;;13.87;63.31;97395.81;5032505;28;20033;-72
2021/10/21 04:53:13;;;;;;;1.88;0.50;;;;;;;13.48;64.67;97365.28;5026060;28;20044;-75
2021/10/21 04:55:39;;;;;;;6.22;0.60;;;;;;;13.42;64.54;97380.72;5030652;28;20084;-74
2021/10/21 04:58:05;;;;;;;4.30;0.60;;;;;;;13.46;64.75;97403.56;5029925;28;20033;-74
2021/10/21 05:00:31;;;;;;;3.60;0.52;;;;;;;13.29;65.06;97395.53;5047921;28;20021;-74
2021/10/21 05:02:57;;;;;;;1.42;0.40;;;;;;;13.40;63.97;97403.78;5036094;28;20026;-75
2021/10/21 05:05:23;;;;;;;4.43;0.38;;;;;;;13.50;63.34;97407.44;5033229;28;20025;-77
2021/10/21 05:07:48;;;;;;;0.55;0.30;;;;;;;13.19;63.96;97389.94;5035818;28;20033;-74
2021/10/21 05:10:14;;;;;;;2.97;0.28;;;;;;;13.36;63.00;97408.91;5030272;28;20034;-74
2021/10/21 05:12:40;;;;;;;6.57;0.40;;;;;;;13.17;64.19;97413.81;5033374;28;20437;-76
2021/10/21 05:15:06;;;;;;;4.88;0.60;;;;;;;13.15;64.79;97424.09;5033518;28;20109;-74
2021/10/21 05:17:31;;;;;;;3.10;0.40;;;;;;;12.98;66.02;97429.63;5032919;28;20048;-70
2021/10/21 05:19:57;;;;;;;6.18;0.50;;;;;;;12.83;66.32;97416.66;5034484;28;20471;-74
2021/10/21 05:22:22;;;;;;;3.67;0.40;;;;;;;12.74;66.89;97428.22;5024447;28;20051;-71
2021/10/21 05:24:47;;;;;;;5.55;0.40;;;;;;;12.90;65.20;97421.94;5030784;28;20490;-76
2021/10/21 05:27:13;;;;;;;2.08;0.32;;;;;;;13.04;64.73;97441.34;5068328;23;20045;-79
2021/10/21 05:29:38;;;;;;;8.85;0.65;;;;;;;13.05;63.96;97445.75;5076121;28;20036;-76
2021/10/21 05:32:07;;;;;;;4.97;0.70;;;;;;;13.27;61.96;97443.84;5041407;28;20482;-75
2021/10/21 05:34:37;;;;;;;4.03;0.63;;;;;;;13.26;61.94;97449.53;5046540;22;20033;-73
2021/10/21 05:37:04;;;;;;;4.40;0.65;;;;;;;13.21;61.90;97433.97;5033428;28;20295;-74
2021/10/21 05:39:31;;;;;;;5.15;0.88;;;;;;;13.20;61.04;97431.50;5032809;28;20478;-73
2021/10/21 05:41:57;;;;;;;7.05;1.80;;;;;;;13.32;60.75;97446.63;5045380;28;20116;-77
2021/10/21 05:44:23;;;;;;;7.22;0.95;;;;;;;13.08;62.26;97442.50;5044722;28;20025;-74
2021/10/21 05:46:49;;;;;;;10.20;0.80;;;;;;;13.10;61.48;97432.22;5034450;28;20112;-74
2021/10/21 05:49:15;;;;;;;5.95;0.60;;;;;;;13.23;60.73;97444.56;5040655;28;20073;-73
2021/10/21 05:51:41;;;;;;;5.15;0.90;;;;;;;13.40;59.99;97464.38;5025060;28;20091;-75
2021/10/21 05:54:06;;;;;;;6.82;0.82;;;;;;;13.34;60.16;97463.50;5035241;28;20030;-74
2021/10/21 05:56:32;;;;;;;5.07;0.85;;;;;;;13.31;60.51;97463.19;5016726;28;20060;-74
2021/10/21 05:58:57;;;;;;;7.53;0.73;;;;;;;13.15;60.08;97443.13;5047414;28;20555;-73
2021/10/21 06:01:22;;;;;;;5.38;0.85;;;;;;;13.26;60.71;97472.09;5034801;28;20032;-77
2021/10/21 06:03:48;;;;;;;2.17;0.68;;;;;;;13.29;60.23;97479.72;5050442;28;20026;-73
2021/10/21 06:06:13;;;;;;;5.18;0.65;;;;;;;13.10;60.78;97473.78;5049781;28;20064;-74
2021/10/21 06:08:40;;;;;;;6.20;0.93;;;;;;;13.34;59.12;97485.22;5036261;28;20036;-77
2021/10/21 06:11:05;;;;;;;8.98;1.10;;;;;;;13.34;59.64;97490.66;5039208;28;20026;-78
2021/10/21 06:13:35;;;;;;;3.17;0.60;;;;;;;13.41;59.06;97509.47;5049538;28;20025;-75
2021/10/21 06:16:01;;;;;;;10.57;0.80;;;;;;;13.47;57.22;97464.19;5050385;28;20083;-76
2021/10/21 06:18:26;;;;;;;4.55;0.52;;;;;;;13.58;57.49;97512.94;5050038;28;20045;-76
2021/10/21 06:20:51;;;;;;;5.15;0.50;;;;;;;13.48;57.97;97491.09;5035455;28;20033;-75
2021/10/21 06:23:17;;;;;;;3.70;0.70;;;;;;;13.54;57.42;97509.06;5045048;28;20032;-74
2021/10/21 06:25:42;;;;;;;7.18;0.90;;;;;;;13.40;58.24;97485.28;5054998;28;20025;-79
2021/10/21 06:28:08;;;;;;;7.10;1.17;;;;;;;13.42;57.14;97489.41;5062975;28;20097;-78
2021/10/21 06:30:35;;;;;;;3.03;0.60;;;;;;;13.51;56.57;97503.34;5043256;28;20051;-74
2021/10/21 06:33:01;;;;;;;5.90;0.80;;;;;;;13.38;56.81;97512.69;5040136;28;20109;-76
2021/10/21 06:35:26;;;;;;;5.75;0.75;;;;;;;13.34;56.56;97478.97;5042703;28;20049;-73
2021/10/21 06:37:52;;;;;;;7.65;0.70;;;;;;;13.44;55.56;97470.94;5043652;28;20036;-74
2021/10/21 06:40:17;;;;;;;11.95;1.83;;;;;;;13.43;56.83;97495.63;5064117;28;20041;-77
2021/10/21 06:42:43;;;;;;;8.32;0.80;;;;;;;13.45;55.52;97490.78;5049660;28;20021;-79
2021/10/21 06:45:13;;;;;;;9.73;0.75;;;;;;;13.55;55.32;97501.78;5066811;28;20338;-72
2021/10/21 06:47:39;;;;;;;7.32;0.60;;;;;;;13.64;55.57;97519.25;5048859;28;20041;-68
2021/10/21 06:50:06;;;;;;;5.97;0.68;;;;;;;13.60;55.27;97488.25;5056266;28;20013;-68
2021/10/21 06:52:47;;;;;;;2.58;0.60;;;;;;;13.73;54.26;97495.19;5067434;28;20075;-68
2021/10/21 06:55:13;;;;;;;5.88;0.57;;;;;;;13.79;54.77;97545.78;5044864;28;20084;-68
2021/10/21 06:57:53;;;;;;;6.10;0.85;;;;;;;13.82;54.21;97537.94;5052412;28;22016;-68
2021/10/21 07:00:19;;;;;;;9.80;0.70;;;;;;;13.85;54.43;97546.66;5051576;28;20028;-67
2021/10/21 07:02:45;;;;;;;7.05;0.60;;;;;;;13.87;54.34;97552.69;5052029;28;20056;-67
2021/10/21 07:05:12;;;;;;;7.10;0.50;;;;;;;13.83;54.29;97549.63;5052899;28;20036;-67
2021/10/21 07:07:41;;;;;;;3.35;0.75;;;;;;;13.95;54.05;97557.66;5050085;28;20009;-67
2021/10/21 07:10:08;;;;;;;2.90;0.70;;;;;;;14.08;53.91;97573.56;5051771;28;20037;-68
2021/10/21 07:12:35;;;;;;;6.43;0.73;;;;;;;14.03;53.65;97570.78;5053219;28;20022;-70
2021/10/21 07:15:05;;;;;;;0.55;0.20;;;;;;;14.03;53.96;97573.50;5050724;28;20036;-69
2021/10/21 07:17:31;;;;;;;;;;;;;;;13.94;54.05;97589.47;5071285;28;20444;-74
2021/10/21 07:19:56;;;;;;;5.25;0.73;;;;;;;13.89;54.75;97596.75;5052239;28;20036;-73
2021/10/21 07:22:22;;;;;;;4.13;0.52;;;;;;;13.91;53.83;97580.97;5052887;28;20039;-72
2021/10/21 07:24:47;;;;;;;3.72;0.47;;;;;;;14.01;54.11;97576.47;5054163;28;20096;-72
2021/10/21 07:27:13;;;;;;;4.50;0.50;;;;;;;13.97;54.53;97637.09;5049829;28;20032;-76
2021/10/21 07:29:38;;;;;;;3.60;0.38;;;;;;;14.09;54.54;97651.34;5042502;28;20021;-71
2021/10/21 07:32:04;;;;;;;2.92;0.43;;;;;;;14.08;53.82;97617.06;5050063;28;20037;-72
2021/10/21 07:34:29;;;;;;;6.18;0.50;;;;;;;14.47;53.56;97641.44;5052086;28;20066;-71
2021/10/21 07:36:55;;;;;;;3.80;0.30;;;;;;;14.24;53.16;97686.88;5067383;28;20009;-71
2021/10/21 07:39:23;;;;;;;3.30;0.40;;;;;;;14.04;53.46;97659.44;5070305;28;20112;-72
2021/10/21 07:41:49;;;;;;;3.63;0.40;;;;;;;14.02;54.10;97740.50;5049969;28;20029;-76
2021/10/21 07:44:15;;;;;;;4.50;0.70;;;;;;;13.92;54.21;97700.38;5048046;28;20025;-72
2021/10/21 07:46:42;;;;;;;8.05;0.52;;;;;;;13.98;54.06;97706.69;5053571;28;20071;-71
2021/10/21 07:49:08;;;;;;;2.67;0.40;;;;;;;14.01;54.12;97725.22;5052557;28;20030;-71
2021/10/21 07:51:34;;;;;;;3.67;0.47;;;;;;;14.07;53.84;97751.44;5051549;28;20033;-67
2021/10/21 07:54:00;;;;;;;4.07;0.28;;;;;;;14.05;53.55;97753.56;5055014;28;20032;-77
2021/10/21 07:56:28;;;;;;;3.10;0.50;;;;;;;13.89;54.29;97729.97;5053359;28;20033;-74
2021/10/21 07:58:58;;;;;;;5.55;0.75;;;;;;;14.01;54.22;97752.41;5070569;28;20049;-72
2021/10/21 08:01:24;;;;;;;4.72;0.50;;;;;;;13.94;54.73;97785.25;5038621;28;20041;-77
2021/10/21 08:03:50;;;;;;;1.70;0.32;;;;;;;13.74;55.39;97798.53;5062444;28;20030;-77
2021/10/21 08:06:15;;;;;;;3.10;0.40;;;;;;;13.76;55.89;97839.88;5041097;28;20029;-77
2021/10/21 08:08:40;;;;;;;5.32;0.28;;;;;;;13.90;55.60;97834.94;5042959;28;20029;-73
2021/10/21 08:11:06;;;;;;;3.10;0.30;;;;;;;13.86;55.28;97839.22;5068003;28;20040;-75
2021/10/21 08:13:31;;;;;;;5.72;0.32;;;;;;;13.79;55.99;97818.47;5049112;28;20022;-75
2021/10/21 08:15:58;;;;;;;5.07;0.32;;;;;;;14.28;54.99;97825.13;5066976;28;20054;-77
2021/10/21 08:18:23;;;;;;;5.88;0.43;;;;;;;15.69;51.66;97856.19;5050784;28;20032;-76
2021/10/21 08:20:49;;;;;;;2.20;0.15;;;;;;;15.69;50.96;97848.84;5062871;28;20010;-72
2021/10/21 08:23:16;;;;;;;2.58;0.25;;;;;;;15.61;51.48;97853.91;5042461;28;20430;-74
2021/10/21 08:25:42;;;;;;;1.27;0.10;;;;;;;15.55;52.77;97911.09;5072274;28;20124;-76
2021/10/21 08:30:38;;;;;;;5.18;0.40;;;;;;;15.96;50.83;97899.78;5073419;28;20037;-77
2021/10/21 08:33:04;;;;;;;3.47;0.63;;;;;;;14.08;57.14;97937.19;5071933;28;20036;-76
2021/10/21 08:35:30;;;;;;;3.15;0.38;;;;;;;13.66;58.58;97962.84;5071866;28;20044;-76
2021/10/21 08:37:58;;;;;;;1.83;0.32;;;;;;;14.16;57.82;97953.94;5074049;28;20687;-76
2021/10/21 08:40:24;;;;;;;2.28;0.47;;;;;;;15.20;55.72;97974.22;5069901;28;20024;-75
2021/10/21 08:42:49;;;;;;;1.30;0.45;;;;;;;14.88;57.02;97968.63;5054195;28;20021;-75
2021/10/21 08:45:15;;;;;;;3.97;0.30;;;;;;;14.11;58.83;98010.13;5040665;28;20032;-72
2021/10/21 08:47:48;;;;;;;6.07;0.30;;;;;;;15.38;55.81;98004.94;5059159;28;20029;-75
2021/10/21 08:50:15;;;;;;;3.75;0.38;;;;;;;16.61;52.19;98002.38;5055238;28;20033;-78
2021/10/21 08:52:41;;;;;;;3.95;0.40;;;;;;;15.19;56.09;98040.69;5054851;28;20021;-76
2021/10/21 08:55:06;;;;;;;6.28;0.38;;;;;;;15.87;54.35;98024.91;5059415;28;20055;-77
2021/10/21 08:57:32;;;;;;;1.20;0.10;;;;;;;15.22;55.94;98044.81;5054298;28;20029;-77
2021/10/21 08:59:58;;;;;;;2.30;0.30;;;;;;;14.35;58.62;98062.50;5056424;28;20021;-74
2021/10/21 09:03:00;;;;;;;1.50;0.20;;;;;;;14.94;56.34;98040.34;5054295;28;20017;-74
2021/10/21 09:08:00;;;;;;;1.63;0.30;;;;;;;14.33;58.13;98097.31;5055451;28;20489;-75
2021/10/21 09:10:26;;;;;;;1.05;0.20;;;;;;;13.30;61.50;98089.84;5050712;28;20084;-73
2021/10/21 09:12:52;;;;;;;1.15;0.13;;;;;;;13.42;60.49;98100.72;5054802;28;20540;-76
2021/10/21 09:15:20;;;;;;;1.42;0.30;;;;;;;12.94;60.92;98113.47;5053512;28;20075;-72
2021/10/21 09:17:47;;;;;;;0.38;0.10;;;;;;;12.59;62.38;98123.44;5052881;28;20031;-77
2021/10/21 09:20:22;;;;;;;3.75;0.20;;;;;;;12.66;62.12;98110.59;5064995;28;20033;-75
2021/10/21 09:23:05;;;;;;;2.13;0.20;;;;;;;12.96;61.82;98125.97;5045915;28;20029;-75
2021/10/21 09:25:31;;;;;;;1.08;0.20;;;;;;;12.93;61.33;98119.13;5054501;28;20562;-77
2021/10/21 09:28:02;;;;;;;0.35;0.10;;;;;;;12.78;61.53;98160.28;5043699;28;20053;-73
2021/10/21 09:30:32;;;;;;;0.10;0.05;;;;;;;13.06;61.59;98165.06;5052695;28;20029;-75
2021/10/21 09:33:04;;;;;;;0.35;0.10;;;;;;;12.74;60.31;98142.00;5052402;28;20032;-74
2021/10/21 09:35:30;;;;;;;2.38;0.20;;;;;;;13.04;60.55;98169.06;5053405;28;20029;-75
2021/10/21 09:37:56;;;;;;;2.88;0.60;;;;;;;13.08;58.74;98153.97;5052799;28;20374;-73
2021/10/21 09:40:28;;;;;;;1.15;0.28;;;;;;;12.87;58.49;98134.47;5050182;28;20024;-71
2021/10/21 09:43:05;;;;;;;2.63;0.30;;;;;;;13.65;56.68;98165.09;5044857;28;20029;-75
2021/10/21 09:45:41;;;;;;;0.10;0.10;;;;;;;13.97;54.86;98173.63;5053141;28;20038;-73
2021/10/21 09:48:08;;;;;;;2.03;0.13;;;;;;;13.62;55.81;98168.25;5052752;28;20043;-75
2021/10/21 09:50:39;;;;;;;1.10;0.10;;;;;;;13.01;56.96;98169.53;5053449;28;20028;-75
2021/10/21 09:53:22;;;;;;;2.40;0.17;;;;;;;13.00;57.80;98146.19;5052685;28;20040;-72
2021/10/21 09:56:13;;;;;;;3.45;0.40;;;;;;;13.01;57.38;98210.28;5053880;28;20028;-75
2021/10/21 09:58:41;;;;;;;1.08;0.25;;;;;;;12.96;57.20;98212.84;5044094;28;20037;-75
2021/10/21 10:01:14;;;;;;;0.98;0.20;;;;;;;13.13;56.48;98239.09;5053074;28;20497;-71
2021/10/21 10:03:43;;;;;;;3.60;0.20;;;;;;;13.32;56.35;98231.72;5051209;28;20032;-68
2021/10/21 10:06:09;;;;;;;0.93;0.20;;;;;;;13.29;56.52;98258.53;5052790;28;20509;-68
2021/10/21 10:08:35;;;;;;;1.35;0.30;;;;;;;14.05;55.03;98264.09;5053158;28;20301;-71
2021/10/21 10:11:03;;;;;;;0.68;0.20;;;;;;;13.58;56.35;98241.28;5053973;28;20444;-72
2021/10/21 10:13:29;;;;;;;0.60;0.20;;;;;;;13.19;55.77;98264.50;5052680;28;20028;-72
2021/10/21 10:15:56;;;;;;;6.32;0.40;;;;;;;13.61;55.99;98259.03;5034991;28;20055;-70
2021/10/21 10:18:27;;;;;;;1.70;0.30;;;;;;;13.77;56.40;98263.75;5074819;28;20038;-70
2021/10/21 10:21:05;;;;;;;1.10;0.30;;;;;;;14.82;53.52;98258.28;5076079;28;20028;-73
2021/10/21 10:23:34;;;;;;;3.67;0.40;;;;;;;15.72;52.20;98259.31;5074136;28;20033;-70
2021/10/21 10:25:59;;;;;;;0.55;0.20;;;;;;;14.87;53.43;98250.22;5071765;28;20025;-71
2021/10/21 10:28:52;;;;;;;1.17;0.47;;;;;;;14.95;53.71;98258.00;5068597;28;20025;-70
2021/10/21 10:31:40;;;;;;;4.13;0.50;;;;;;;15.48;51.32;98266.78;5049675;28;20029;-70
2021/10/21 10:34:08;;;;;;;2.53;0.40;;;;;;;15.01;51.90;98262.47;5031123;28;20088;-70
2021/10/21 10:36:35;;;;;;;0.85;0.20;;;;;;;15.13;52.11;98265.94;5049584;28;20025;-70
2021/10/21 10:39:27;;;;;;;2.22;0.68;;;;;;;14.88;52.28;98251.88;5046344;28;20037;-70
2021/10/21 10:41:54;;;;;;;3.28;0.75;;;;;;;15.32;52.24;98246.63;5039785;28;20036;-70
2021/10/21 10:44:34;;;;;;;3.55;1.05;;;;;;;14.71;52.93;98262.72;5050063;28;20086;-70
2021/10/21 10:47:00;;;;;;;2.00;0.35;;;;;;;14.74;52.14;98275.03;5046490;28;20043;-69
2021/10/21 10:49:41;;;;;;;3.92;0.57;;;;;;;14.59;52.41;98270.09;5048960;28;20131;-70
2021/10/21 10:52:17;;;;;;;2.80;0.43;;;;;;;14.46;52.50;98268.47;5054962;28;20037;-70
2021/10/21 10:54:42;;;;;;;4.75;0.60;;;;;;;14.24;52.82;98263.69;5048632;28;20136;-70
2021/10/21 10:57:10;;;;;;;3.05;0.70;;;;;;;14.33;52.99;98255.97;5050029;28;20522;-70
2021/10/21 10:59:35;;;;;;;2.78;0.35;;;;;;;14.36;54.05;98269.09;5047287;28;20120;-71
2021/10/21 11:02:29;;;;;;;4.38;0.80;;;;;;;14.78;51.70;98270.75;5039436;28;20107;-71
2021/10/21 11:04:57;;;;;;;1.80;0.75;;;;;;;14.93;52.02;98273.75;5030570;28;20037;-73
2021/10/21 11:07:27;;;;;;;1.65;0.50;;;;;;;15.91;50.53;98266.13;5044221;28;20029;-74
2021/10/21 11:09:54;;;;;;;2.08;0.52;;;;;;;15.61;50.11;98273.81;5047879;28;20032;-72
2021/10/21 11:12:22;;;;;;;7.35;0.82;;;;;;;16.06;49.12;98275.56;5049881;28;20021;-73
2021/10/21 11:14:55;;;;;;;2.53;0.55;;;;;;;17.54;46.63;98269.03;5049578;28;20025;-74
2021/10/21 11:17:40;;;;;;;5.85;0.55;;;;;;;15.63;50.27;98285.28;5037487;28;20063;-69
2021/10/21 11:20:07;;;;;;;3.15;0.80;;;;;;;15.62;49.35;98294.56;5049445;28;20482;-75
2021/10/21 11:22:33;;;;;;;1.65;0.40;;;;;;;15.33;49.66;98302.81;5050500;28;20466;-72
2021/10/21 11:25:04;;;;;;;3.75;0.73;;;;;;;15.05;50.61;98299.03;5049879;28;20025;-71
2021/10/21 11:27:32;;;;;;;5.28;0.50;;;;;;;14.93;50.12;98290.09;5049423;28;20029;-71
2021/10/21 11:30:17;;;;;;;5.35;0.75;;;;;;;16.04;48.72;98281.31;5049294;28;20036;-72
2021/10/21 11:32:44;;;;;;;4.35;0.60;;;;;;;16.93;46.36;98291.16;5049815;28;20027;-71
2021/10/21 11:35:18;;;;;;;5.03;0.75;;;;;;;17.57;44.71;98286.81;5050507;28;20162;-73